Time;durP1;ratioP1;P1;durP2;ratioP2;P2;SDS_P1;SDS_P2;PMS_P1;PMS_P2;Temp;Humidity;BMP_temperature;BMP_pressure;BME280_temperature;BME280_humidity;BME280_pressure;Samples;Min_cycle;Max_cycle;Signal;HPM_P1;HPM_P2
2022/04/09 00:00:32;;;;;;;0.00;0.00;;;;;;;16.13;43.24;98018.38;6274600;22;20429;-73
2022/04/09 00:02:58;;;;;;;0.10;0.10;;;;;;;16.07;43.52;98013.56;6274487;22;20007;-73
2022/04/09 00:05:24;;;;;;;0.00;0.00;;;;;;;16.07;43.37;98016.28;6274717;22;20077;-73
2022/04/09 00:07:50;;;;;;;0.00;0.00;;;;;;;15.97;43.49;98007.50;6274599;22;20056;-73
2022/04/09 00:10:16;;;;;;;0.05;0.05;;;;;;;15.94;43.45;98008.19;6274722;22;20426;-73
2022/04/09 00:12:46;;;;;;;0.08;0.08;;;;;;;15.95;43.87;98003.56;6274670;22;20008;-73
2022/04/09 00:15:12;;;;;;;0.10;0.10;;;;;;;15.98;43.80;98013.69;6274583;22;20072;-73
2022/04/09 00:17:39;;;;;;;0.10;0.10;;;;;;;15.92;43.69;98010.41;6275084;22;20015;-73
2022/04/09 00:20:06;;;;;;;0.10;0.10;;;;;;;15.88;43.98;98012.22;6274782;22;20064;-73
2022/04/09 00:22:31;;;;;;;0.08;0.08;;;;;;;15.89;43.77;98008.38;6274264;22;20460;-73
2022/04/09 00:24:57;;;;;;;0.00;0.00;;;;;;;15.89;43.95;98011.09;6274468;22;20003;-73
2022/04/09 00:27:22;;;;;;;0.00;0.00;;;;;;;15.90;43.99;98004.56;6274583;22;20008;-73
2022/04/09 00:29:48;;;;;;;0.00;0.00;;;;;;;15.92;44.12;98001.56;6274888;22;20117;-73
2022/04/09 00:32:13;;;;;;;0.00;0.00;;;;;;;15.90;44.41;98001.09;6274596;22;20422;-73
2022/04/09 00:34:39;;;;;;;0.10;0.10;;;;;;;15.88;43.93;98006.03;6274860;22;20007;-73
2022/04/09 00:37:04;;;;;;;0.25;0.25;;;;;;;15.92;44.12;98010.41;6247559;22;20349;-73
2022/04/09 00:39:30;;;;;;;0.00;0.00;;;;;;;15.91;44.19;98010.75;6274540;22;20058;-73
2022/04/09 00:41:55;;;;;;;0.00;0.00;;;;;;;15.91;44.06;98010.75;6247659;22;20007;-73
2022/04/09 00:44:21;;;;;;;0.10;0.10;;;;;;;15.87;44.11;98007.16;6274384;22;20352;-73
2022/04/09 00:46:47;;;;;;;0.10;0.10;;;;;;;15.87;43.94;98007.16;6274660;22;20008;-73
2022/04/09 00:49:14;;;;;;;0.00;0.00;;;;;;;15.86;43.89;98008.31;6274417;22;20004;-73
2022/04/09 00:51:41;;;;;;;0.10;0.10;;;;;;;15.87;44.24;98024.13;6274715;22;20004;-73
2022/04/09 00:54:10;;;;;;;0.00;0.00;;;;;;;15.87;44.00;98013.34;6247572;22;20004;-73
2022/04/09 00:56:37;;;;;;;0.00;0.00;;;;;;;15.89;43.98;98013.00;6274009;22;20496;-73
2022/04/09 00:59:06;;;;;;;0.00;0.00;;;;;;;15.86;43.85;98003.69;6274530;22;20004;-73
2022/04/09 01:01:36;;;;;;;0.00;0.00;;;;;;;15.86;44.06;98006.38;6274356;22;20031;-73
2022/04/09 01:04:07;;;;;;;0.00;0.00;;;;;;;15.87;44.19;98009.84;6274342;22;20003;-73
2022/04/09 01:06:33;;;;;;;0.20;0.20;;;;;;;15.84;44.02;98006.72;6274145;22;20475;-73
2022/04/09 01:08:59;;;;;;;0.10;0.10;;;;;;;15.79;44.30;98001.50;6274293;22;20000;-73
2022/04/09 01:11:24;;;;;;;0.00;0.00;;;;;;;15.73;44.37;98007.47;6274224;22;20003;-73
2022/04/09 01:13:51;;;;;;;0.10;0.10;;;;;;;15.70;44.32;98017.00;6274434;22;20008;-73
2022/04/09 01:16:16;;;;;;;0.10;0.10;;;;;;;15.69;44.39;98007.34;6273093;22;20074;-73
2022/04/09 01:18:42;;;;;;;0.00;0.00;;;;;;;15.66;44.58;98011.50;6273136;22;20046;-74
2022/04/09 01:21:07;;;;;;;0.00;0.00;;;;;;;15.60;44.76;98006.66;6273165;22;20004;-73
2022/04/09 01:23:33;;;;;;;0.03;0.03;;;;;;;15.54;44.80;98008.78;6272758;22;20011;-73
2022/04/09 01:26:00;;;;;;;0.10;0.10;;;;;;;15.48;44.92;98005.50;6273130;22;20004;-73
2022/04/09 01:28:26;;;;;;;0.10;0.10;;;;;;;15.46;44.79;98012.34;6272816;22;20433;-73
2022/04/09 01:30:52;;;;;;;0.00;0.00;;;;;;;15.43;45.01;98010.31;6272777;22;20011;-73
2022/04/09 01:33:19;;;;;;;0.05;0.05;;;;;;;15.41;44.81;98012.56;6272745;22;20007;-73
2022/04/09 01:35:45;;;;;;;0.00;0.00;;;;;;;15.36;44.90;98006.25;6273004;22;20029;-73
2022/04/09 01:38:12;;;;;;;0.10;0.10;;;;;;;15.33;44.91;98009.63;6273008;22;20437;-73
2022/04/09 01:40:38;;;;;;;0.00;0.00;;;;;;;15.31;44.80;98011.88;6272788;22;20011;-73
2022/04/09 01:43:03;;;;;;;0.00;0.00;;;;;;;15.36;44.77;98025.13;6272965;22;20003;-73
2022/04/09 01:45:29;;;;;;;0.10;0.10;;;;;;;15.33;45.22;98025.81;6272292;22;20004;-73
2022/04/09 01:47:55;;;;;;;0.10;0.10;;;;;;;15.31;44.88;98024.56;6272986;22;20337;-73
2022/04/09 01:50:21;;;;;;;0.00;0.00;;;;;;;15.31;44.96;98027.25;6272723;22;20053;-73
2022/04/09 01:52:47;;;;;;;0.00;0.00;;;;;;;15.30;45.12;98018.38;6272954;22;20034;-73
2022/04/09 01:55:13;;;;;;;0.00;0.00;;;;;;;15.33;45.13;98022.31;6272956;22;20421;-73
2022/04/09 01:57:39;;;;;;;0.00;0.00;;;;;;;15.30;45.11;98025.69;6272652;22;20030;-73
2022/04/09 02:00:08;;;;;;;0.00;0.00;;;;;;;15.27;45.27;98021.75;6272845;22;20004;-73
2022/04/09 02:02:34;;;;;;;0.10;0.10;;;;;;;15.26;45.14;98019.34;6245077;22;20026;-73
2022/04/09 02:05:00;;;;;;;0.00;0.00;;;;;;;15.25;45.41;98015.13;6272755;22;20006;-73
2022/04/09 02:07:27;;;;;;;0.00;0.00;;;;;;;15.23;45.58;98011.97;6272579;22;20076;-73
2022/04/09 02:09:56;;;;;;;0.10;0.10;;;;;;;15.21;45.43;98023.84;6272755;22;19999;-73
2022/04/09 02:12:21;;;;;;;0.00;0.00;;;;;;;15.17;45.63;98027.53;6272509;22;20178;-73
2022/04/09 02:14:46;;;;;;;0.10;0.10;;;;;;;15.11;45.63;98021.56;6272587;22;20010;-73
2022/04/09 02:17:13;;;;;;;0.00;0.00;;;;;;;15.10;45.76;98014.63;6224371;22;1135602;-73
2022/04/09 02:19:39;;;;;;;0.00;0.00;;;;;;;15.06;45.76;98024.44;6273653;22;20003;-73
2022/04/09 02:22:05;;;;;;;0.10;0.10;;;;;;;15.00;45.70;98031.16;6273950;22;20110;-73
2022/04/09 02:24:31;;;;;;;0.00;0.00;;;;;;;14.96;45.82;98031.03;6273574;22;20004;-73
2022/04/09 02:26:56;;;;;;;0.00;0.00;;;;;;;14.95;46.03;98028.69;6273956;22;20540;-73
2022/04/09 02:29:22;;;;;;;0.00;0.00;;;;;;;14.88;46.04;98016.53;6273655;22;20003;-73
2022/04/09 02:31:47;;;;;;;0.00;0.00;;;;;;;14.87;46.00;98024.94;6246835;22;20007;-73
2022/04/09 02:34:13;;;;;;;0.00;0.00;;;;;;;14.87;46.07;98028.41;6274309;22;20067;-73
2022/04/09 02:36:38;;;;;;;0.00;0.00;;;;;;;14.82;46.38;98036.69;6273225;22;20480;-74
2022/04/09 02:39:04;;;;;;;0.00;0.00;;;;;;;14.75;46.68;98039.13;6273906;22;20027;-73
2022/04/09 02:41:30;;;;;;;0.00;0.00;;;;;;;14.64;46.77;98033.31;6273674;22;20047;-73
2022/04/09 02:43:55;;;;;;;0.10;0.10;;;;;;;14.57;47.30;98025.78;6273777;22;20511;-73
2022/04/09 02:46:21;;;;;;;0.00;0.00;;;;;;;14.53;47.03;98027.53;6273629;22;20014;-73
2022/04/09 02:48:47;;;;;;;0.00;0.00;;;;;;;14.46;47.30;98023.78;6273860;22;20499;-73
2022/04/09 02:51:12;;;;;;;0.10;0.10;;;;;;;14.40;47.41;98029.38;6273828;22;20095;-73
2022/04/09 02:53:38;;;;;;;0.00;0.00;;;;;;;14.33;47.65;98021.03;6273153;22;20000;-73
2022/04/09 02:56:05;;;;;;;0.00;0.00;;;;;;;14.25;47.82;98016.47;6273442;22;20012;-73
2022/04/09 02:58:30;;;;;;;0.00;0.00;;;;;;;14.16;47.86;98032.66;6273128;22;20438;-73
2022/04/09 03:00:56;;;;;;;0.10;0.10;;;;;;;14.07;48.09;98023.84;6273758;22;20107;-73
2022/04/09 03:03:22;;;;;;;0.10;0.10;;;;;;;14.01;47.99;98036.69;6273530;22;20018;-73
2022/04/09 03:05:47;;;;;;;0.00;0.00;;;;;;;13.92;48.68;98025.97;6273678;22;20029;-73
2022/04/09 03:08:13;;;;;;;0.00;0.00;;;;;;;13.90;48.52;98035.47;6273718;22;20003;-73
2022/04/09 03:10:38;;;;;;;0.10;0.10;;;;;;;13.82;48.82;98022.84;6273457;22;20310;-73
2022/04/09 03:13:06;;;;;;;0.00;0.00;;;;;;;13.81;48.97;98023.97;6273746;22;20008;-73
2022/04/09 03:15:32;;;;;;;;;;;;;;;13.77;49.23;98016.53;6275140;22;20008;-73
2022/04/09 03:17:57;;;;;;;0.00;0.00;;;;;;;13.70;49.33;98018.94;6275692;22;20360;-73
2022/04/09 03:20:22;;;;;;;0.00;0.00;;;;;;;13.60;49.20;98017.38;6275320;22;20000;-73
2022/04/09 03:22:49;;;;;;;0.00;0.00;;;;;;;13.55;49.36;98020.25;6275516;22;20008;-73
2022/04/09 03:25:15;;;;;;;0.00;0.00;;;;;;;13.52;49.56;98030.84;6275309;22;20010;-73
2022/04/09 03:27:40;;;;;;;0.00;0.00;;;;;;;13.51;49.64;98037.31;6275144;22;20007;-73
2022/04/09 03:30:08;;;;;;;0.00;0.00;;;;;;;13.45;50.02;98037.50;6248307;22;20027;-73
2022/04/09 03:32:36;;;;;;;0.00;0.00;;;;;;;13.44;49.81;98045.88;6275202;22;20452;-73
2022/04/09 03:35:02;;;;;;;0.10;0.10;;;;;;;13.40;49.75;98037.69;6275194;22;20008;-73
2022/04/09 03:37:27;;;;;;;0.00;0.00;;;;;;;13.40;50.08;98045.75;6275164;22;20437;-73
2022/04/09 03:39:53;;;;;;;0.10;0.10;;;;;;;13.34;50.25;98054.22;6275262;22;20003;-73
2022/04/09 03:42:18;;;;;;;0.00;0.00;;;;;;;13.33;50.41;98058.03;6275348;22;20004;-73
2022/04/09 03:44:44;;;;;;;0.00;0.00;;;;;;;13.27;50.92;98057.41;6275006;22;20053;-73
2022/04/09 03:47:09;;;;;;;0.00;0.00;;;;;;;13.20;51.13;98049.81;6275293;22;19999;-73
2022/04/09 03:49:34;;;;;;;0.00;0.00;;;;;;;13.22;51.03;98042.25;6275038;22;20004;-73
2022/04/09 03:52:00;;;;;;;0.00;0.00;;;;;;;13.19;50.59;98032.13;6274911;22;20004;-73
2022/04/09 03:54:26;;;;;;;0.00;0.00;;;;;;;13.21;50.75;98038.00;6274878;22;20007;-73
2022/04/09 03:56:52;;;;;;;0.00;0.00;;;;;;;13.28;50.84;98040.97;6275246;22;20429;-73
2022/04/09 03:59:18;;;;;;;0.00;0.00;;;;;;;13.32;51.02;98032.28;6275215;22;20023;-74
2022/04/09 04:01:46;;;;;;;0.00;0.00;;;;;;;13.44;50.64;98038.59;6274881;22;20026;-73
2022/04/09 04:04:12;;;;;;;0.00;0.00;;;;;;;13.55;50.43;98043.63;6247960;22;20015;-73
2022/04/09 04:06:38;;;;;;;0.00;0.00;;;;;;;13.64;50.48;98046.31;6274501;22;20449;-73
2022/04/09 04:09:04;;;;;;;0.00;0.00;;;;;;;13.82;50.13;98045.13;6275105;22;20003;-73
2022/04/09 04:11:29;;;;;;;0.00;0.00;;;;;;;14.03;50.08;98049.81;6247734;22;20027;-73
2022/04/09 04:13:55;;;;;;;0.20;0.20;;;;;;;14.27;49.26;98045.72;6275007;22;20065;-73
2022/04/09 04:16:21;;;;;;;0.10;0.10;;;;;;;14.57;48.79;98044.59;6274740;22;20015;-73
2022/04/09 04:18:46;;;;;;;0.00;0.00;;;;;;;14.97;48.11;98056.06;6247689;22;20008;-73
2022/04/09 04:21:12;;;;;;;0.00;0.00;;;;;;;15.32;47.43;98050.38;6274940;22;20417;-73
2022/04/09 04:23:37;;;;;;;0.10;0.10;;;;;;;15.76;46.62;98058.78;6274495;22;20000;-73
2022/04/09 04:26:03;;;;;;;0.08;0.08;;;;;;;16.19;45.42;98051.31;6274478;22;20414;-72
2022/04/09 04:28:28;;;;;;;0.00;0.00;;;;;;;16.66;44.61;98058.13;6274651;22;20038;-72
2022/04/09 04:30:55;;;;;;;0.10;0.10;;;;;;;17.13;43.44;98054.09;6274842;22;20010;-73
2022/04/09 04:33:21;;;;;;;0.10;0.10;;;;;;;17.61;42.41;98046.09;6275212;22;20007;-73
2022/04/09 04:35:46;;;;;;;0.10;0.10;;;;;;;18.11;41.68;98056.59;6274561;22;20091;-73
2022/04/09 04:38:12;;;;;;;0.03;0.03;;;;;;;18.54;40.54;98049.44;6274807;22;20038;-73
2022/04/09 04:40:37;;;;;;;0.00;0.00;;;;;;;18.94;39.63;98056.50;6274139;22;20000;-73
2022/04/09 04:43:03;;;;;;;0.10;0.10;;;;;;;19.40;38.97;98061.28;6247281;22;20008;-73
2022/04/09 04:45:29;;;;;;;0.00;0.00;;;;;;;19.83;37.58;98055.84;6274317;22;20000;-73
2022/04/09 04:47:55;;;;;;;0.30;0.30;;;;;;;20.14;36.57;98049.41;6274654;22;20003;-74
2022/04/09 04:50:21;;;;;;;0.10;0.10;;;;;;;20.52;36.21;98046.84;6274445;22;20004;-74
2022/04/09 04:52:47;;;;;;;0.10;0.10;;;;;;;20.86;35.45;98041.50;6274108;22;20007;-73
2022/04/09 04:55:14;;;;;;;0.00;0.00;;;;;;;21.28;34.92;98040.41;6274575;22;20004;-74
2022/04/09 04:57:46;;;;;;;0.10;0.10;;;;;;;21.65;34.01;98054.41;6274324;22;20082;-75
2022/04/09 05:00:17;;;;;;;0.10;0.10;;;;;;;22.05;33.59;98047.34;6274578;22;20088;-75
2022/04/09 05:02:43;;;;;;;0.05;0.05;;;;;;;22.48;33.03;98042.22;6274209;22;20007;-75
2022/04/09 05:05:09;;;;;;;0.08;0.08;;;;;;;22.85;32.21;98035.81;6274372;22;20004;-74
2022/04/09 05:07:42;;;;;;;0.10;0.10;;;;;;;23.25;31.63;98037.91;6273725;22;20003;-75
2022/04/09 05:10:15;;;;;;;0.00;0.00;;;;;;;23.58;31.00;98038.75;6274324;22;20333;-73
2022/04/09 05:12:41;;;;;;;0.10;0.10;;;;;;;23.89;30.40;98039.94;6274167;22;20003;-76
2022/04/09 05:15:08;;;;;;;0.00;0.00;;;;;;;24.09;30.12;98037.63;6273984;22;20011;-74
2022/04/09 05:17:34;;;;;;;0.00;0.00;;;;;;;24.29;29.86;98035.25;6274204;22;20016;-73
2022/04/09 05:20:02;;;;;;;0.00;0.00;;;;;;;24.44;29.54;98019.63;6274081;22;20387;-74
2022/04/09 05:22:28;;;;;;;0.17;0.17;;;;;;;24.63;29.40;98031.28;6274355;22;20008;-74
2022/04/09 05:24:57;;;;;;;0.00;0.00;;;;;;;24.77;28.84;98025.03;6273997;22;20443;-75
2022/04/09 05:27:23;;;;;;;0.00;0.00;;;;;;;24.92;29.04;98023.00;6273937;22;20482;-75
2022/04/09 05:29:49;;;;;;;0.00;0.00;;;;;;;25.08;28.80;98026.06;6273986;22;20027;-75
2022/04/09 05:32:14;;;;;;;0.00;0.00;;;;;;;25.26;28.71;98019.72;6274288;22;20003;-75
2022/04/09 05:34:40;;;;;;;0.00;0.00;;;;;;;25.45;28.07;98028.59;6273569;22;20050;-75
2022/04/09 05:37:06;;;;;;;0.00;0.00;;;;;;;25.66;28.35;98028.47;6273697;22;20011;-75
2022/04/09 05:39:31;;;;;;;0.00;0.00;;;;;;;25.90;28.08;98034.13;6273749;22;20010;-75
2022/04/09 05:41:57;;;;;;;0.00;0.00;;;;;;;26.11;28.21;98021.47;6274186;22;20007;-74
2022/04/09 05:44:22;;;;;;;0.00;0.00;;;;;;;26.25;27.61;98023.31;6274013;22;20004;-75
2022/04/09 05:46:48;;;;;;;0.00;0.00;;;;;;;26.34;27.90;98026.31;6273394;22;20039;-75
2022/04/09 05:49:13;;;;;;;0.00;0.00;;;;;;;26.45;27.98;98018.00;6273424;22;20003;-75
2022/04/09 05:51:38;;;;;;;0.00;0.00;;;;;;;26.52;27.75;98026.94;6273825;22;20327;-74
2022/04/09 05:54:05;;;;;;;0.00;0.00;;;;;;;26.51;27.72;98021.84;6273974;22;20007;-75
2022/04/09 05:56:31;;;;;;;0.00;0.00;;;;;;;26.51;27.46;98019.09;6273777;22;20110;-75
2022/04/09 05:58:56;;;;;;;0.00;0.00;;;;;;;26.42;27.76;98016.84;6273496;22;20417;-74
2022/04/09 06:01:22;;;;;;;0.00;0.00;;;;;;;26.33;28.13;98025.56;6272848;22;20011;-74
2022/04/09 06:03:48;;;;;;;0.00;0.00;;;;;;;26.15;28.08;98028.47;6272765;22;20445;-75
2022/04/09 06:06:13;;;;;;;0.00;0.00;;;;;;;25.95;28.25;98025.50;6272683;22;20027;-75
2022/04/09 06:08:39;;;;;;;0.00;0.00;;;;;;;25.79;28.33;98027.97;6272737;22;20000;-73
2022/04/09 06:11:05;;;;;;;0.00;0.00;;;;;;;25.69;29.29;98018.66;6273131;22;20397;-75
2022/04/09 06:13:30;;;;;;;0.00;0.00;;;;;;;25.52;28.79;98018.41;6273097;22;20022;-75
2022/04/09 06:15:56;;;;;;;0.00;0.00;;;;;;;25.31;29.06;98022.00;6272600;22;20016;-74
2022/04/09 06:18:21;;;;;;;0.03;0.03;;;;;;;25.09;29.44;98005.72;6273150;22;20666;-75
2022/04/09 06:20:47;;;;;;;0.00;0.00;;;;;;;24.90;29.89;98009.72;6272754;22;20380;-75
2022/04/09 06:23:13;;;;;;;0.05;0.05;;;;;;;24.65;30.16;98009.78;6245872;22;20000;-75
2022/04/09 06:25:38;;;;;;;0.03;0.03;;;;;;;24.54;30.25;98011.78;6272699;22;20054;-75
2022/04/09 06:28:04;;;;;;;0.00;0.00;;;;;;;24.39;30.34;98011.81;6273016;22;20003;-75
2022/04/09 06:30:29;;;;;;;0.05;0.05;;;;;;;24.24;30.89;98004.81;6272971;22;20337;-75
2022/04/09 06:32:54;;;;;;;0.00;0.00;;;;;;;24.18;30.85;98009.13;6272259;22;20026;-74
2022/04/09 06:35:21;;;;;;;0.00;0.00;;;;;;;24.12;30.86;98015.00;6272759;22;20008;-75
2022/04/09 06:37:46;;;;;;;0.00;0.00;;;;;;;24.03;30.97;98002.91;6272432;22;20011;-75
2022/04/09 06:40:12;;;;;;;0.05;0.05;;;;;;;23.94;31.32;98006.06;6271975;22;20008;-75
2022/04/09 06:42:39;;;;;;;0.05;0.05;;;;;;;23.88;31.86;98000.16;6244817;22;20031;-75
2022/04/09 06:45:06;;;;;;;0.00;0.00;;;;;;;23.93;32.01;97993.56;6272692;22;20377;-75
2022/04/09 06:47:31;;;;;;;0.00;0.00;;;;;;;23.93;31.97;97996.28;6272909;22;20086;-75
2022/04/09 06:49:57;;;;;;;0.00;0.00;;;;;;;24.02;31.84;98002.13;6274683;22;20075;-75
2022/04/09 06:52:23;;;;;;;0.08;0.08;;;;;;;23.94;32.10;98000.59;6274853;22;20010;-75
2022/04/09 06:54:49;;;;;;;0.00;0.00;;;;;;;23.97;31.92;97989.66;6274262;22;20011;-75
2022/04/09 06:57:14;;;;;;;0.00;0.00;;;;;;;23.98;31.45;97998.63;6247636;22;20046;-75
2022/04/09 06:59:40;;;;;;;0.00;0.00;;;;;;;24.09;31.26;97998.63;6274812;22;20007;-75
2022/04/09 07:02:06;;;;;;;0.10;0.10;;;;;;;24.04;30.62;97991.59;6275076;22;20047;-76
2022/04/09 07:04:32;;;;;;;0.00;0.00;;;;;;;24.08;30.42;97997.06;6275382;22;20007;-75
2022/04/09 07:06:58;;;;;;;0.00;0.00;;;;;;;24.11;30.67;97999.78;6275151;22;20007;-75
2022/04/09 07:09:23;;;;;;;0.00;0.00;;;;;;;24.13;30.82;97999.38;6275180;22;20008;-75
2022/04/09 07:11:49;;;;;;;0.00;0.00;;;;;;;24.08;30.99;98000.56;6248131;22;20079;-75
2022/04/09 07:14:14;;;;;;;0.00;0.00;;;;;;;24.05;30.83;98001.34;6275337;22;20034;-75
2022/04/09 07:16:40;;;;;;;0.00;0.00;;;;;;;24.00;30.97;97998.22;6275196;22;20035;-75
2022/04/09 07:19:08;;;;;;;0.00;0.00;;;;;;;23.96;30.92;97995.50;6275507;22;20011;-75
2022/04/09 07:21:34;;;;;;;0.20;0.20;;;;;;;23.86;31.05;98004.47;6275493;22;20567;-75
2022/04/09 07:23:59;;;;;;;0.00;0.00;;;;;;;23.79;31.35;98002.50;6274744;22;20014;-75
2022/04/09 07:26:25;;;;;;;0.00;0.00;;;;;;;23.80;31.63;98004.06;6275462;22;20011;-76
2022/04/09 07:28:53;;;;;;;0.10;0.10;;;;;;;23.79;31.45;98000.56;6275145;22;20499;-75
2022/04/09 07:31:18;;;;;;;0.30;0.30;;;;;;;23.81;31.36;97997.44;6275353;22;20464;-75
2022/04/09 07:33:44;;;;;;;0.05;0.05;;;;;;;23.85;31.78;97997.44;6247911;22;20000;-75
2022/04/09 07:36:09;;;;;;;0.00;0.00;;;;;;;23.87;30.88;98001.31;6275321;22;20007;-75
2022/04/09 07:38:34;;;;;;;0.10;0.10;;;;;;;23.70;30.82;97980.28;6275229;22;20433;-75
2022/04/09 07:41:00;;;;;;;0.00;0.00;;;;;;;23.58;31.19;97990.44;6275012;22;20004;-75
2022/04/09 07:43:25;;;;;;;0.20;0.20;;;;;;;23.43;31.50;97988.84;6275233;22;20007;-75
2022/04/09 07:45:51;;;;;;;0.00;0.00;;;;;;;23.39;31.26;97993.50;6274866;22;20027;-75
2022/04/09 07:48:16;;;;;;;0.10;0.10;;;;;;;23.37;32.05;97993.13;6275187;22;20122;-75
2022/04/09 07:50:42;;;;;;;0.10;0.10;;;;;;;23.34;31.99;97992.72;6274536;22;20003;-74
2022/04/09 07:53:09;;;;;;;0.13;0.13;;;;;;;23.37;32.56;97996.63;6274690;22;20007;-75
2022/04/09 07:55:34;;;;;;;0.10;0.10;;;;;;;23.39;32.23;97991.56;6275126;22;20004;-75
2022/04/09 07:58:01;;;;;;;0.00;0.00;;;;;;;23.36;32.18;97995.06;6274793;22;20007;-75
2022/04/09 08:00:27;;;;;;;0.00;0.00;;;;;;;23.38;32.43;97998.19;6274317;22;20441;-75
2022/04/09 08:02:52;;;;;;;0.75;0.30;;;;;;;23.38;32.49;97984.56;6274502;22;20000;-75
2022/04/09 08:05:18;;;;;;;0.00;0.00;;;;;;;23.39;32.13;97980.66;6275077;22;20445;-75
2022/04/09 08:07:44;;;;;;;0.10;0.10;;;;;;;23.45;32.42;97981.06;6274690;22;20014;-75
2022/04/09 08:10:11;;;;;;;0.20;0.20;;;;;;;23.45;32.62;97981.06;6274553;22;20000;-75
2022/04/09 08:12:37;;;;;;;0.10;0.10;;;;;;;23.53;32.93;97992.75;6274806;22;20074;-75
2022/04/09 08:15:04;;;;;;;0.10;0.10;;;;;;;23.50;33.04;97975.22;6274496;22;20007;-75
2022/04/09 08:17:30;;;;;;;0.00;0.00;;;;;;;23.53;32.97;97974.41;6274383;22;20083;-75
2022/04/09 08:19:56;;;;;;;0.52;0.30;;;;;;;23.46;32.70;97988.06;6274582;22;20007;-75
2022/04/09 08:22:22;;;;;;;0.08;0.08;;;;;;;23.36;32.81;97965.06;6274829;22;20539;-75
2022/04/09 08:24:48;;;;;;;0.00;0.00;;;;;;;23.36;32.95;97972.47;6274546;22;20011;-75
2022/04/09 08:27:14;;;;;;;0.00;0.00;;;;;;;23.29;33.44;97959.59;6274532;22;20004;-75
2022/04/09 08:29:40;;;;;;;0.10;0.10;;;;;;;23.25;33.79;97945.16;6247436;22;20053;-75
2022/04/09 08:32:06;;;;;;;0.00;0.00;;;;;;;23.27;33.31;97951.78;6274360;22;20003;-75
2022/04/09 08:34:35;;;;;;;0.00;0.00;;;;;;;23.23;33.34;97951.03;6274632;22;20003;-75
2022/04/09 08:37:00;;;;;;;0.20;0.20;;;;;;;23.19;33.67;97942.03;6274457;22;20468;-75
2022/04/09 08:39:26;;;;;;;0.00;0.00;;;;;;;23.22;33.90;97938.56;6274369;22;20486;-75
2022/04/09 08:41:53;;;;;;;5.57;0.22;;;;;;;23.28;33.70;97955.31;6274426;22;20004;-74
2022/04/09 08:44:19;;;;;;;0.00;0.00;;;;;;;23.22;33.42;97951.38;6274460;22;19999;-74
2022/04/09 08:46:47;;;;;;;0.10;0.10;;;;;;;23.22;33.79;97932.31;6274263;22;20033;-74
2022/04/09 08:49:13;;;;;;;0.00;0.00;;;;;;;23.25;33.76;97937.00;6274450;22;20034;-74
2022/04/09 08:51:39;;;;;;;0.10;0.10;;;;;;;23.22;33.74;97933.09;6274428;22;20003;-74
2022/04/09 08:54:05;;;;;;;0.10;0.10;;;;;;;23.26;33.98;97928.41;6247075;22;20012;-74
2022/04/09 08:56:33;;;;;;;0.00;0.00;;;;;;;23.31;34.01;97916.34;6247410;22;20000;-74
2022/04/09 08:59:00;;;;;;;0.10;0.10;;;;;;;23.32;34.23;97917.91;6274212;22;20376;-74
2022/04/09 09:01:26;;;;;;;0.00;0.00;;;;;;;23.40;33.70;97919.47;6274454;22;20004;-74
2022/04/09 09:03:53;;;;;;;0.00;0.00;;;;;;;23.46;33.39;97917.13;6274038;22;20003;-74
2022/04/09 09:06:30;;;;;;;0.00;0.00;;;;;;;23.53;33.72;97913.63;6274215;22;20575;-74
2022/04/09 09:08:57;;;;;;;0.00;0.00;;;;;;;23.54;33.70;97907.75;6274103;22;20006;-74
2022/04/09 09:11:24;;;;;;;0.10;0.10;;;;;;;23.58;33.40;97907.75;6273729;22;20082;-74
2022/04/09 09:13:55;;;;;;;0.00;0.00;;;;;;;23.59;33.47;97904.63;6273989;22;20011;-74
2022/04/09 09:16:32;;;;;;;0.00;0.00;;;;;;;23.65;33.02;97905.78;6273778;22;20090;-74
2022/04/09 09:19:02;;;;;;;0.00;0.00;;;;;;;23.60;33.21;97899.97;6273657;22;20058;-74
2022/04/09 09:21:27;;;;;;;0.00;0.00;;;;;;;23.58;33.77;97891.38;6273840;22;20003;-74
2022/04/09 09:24:17;;;;;;;0.00;0.00;;;;;;;23.57;33.69;97898.00;6273306;22;20058;-74
2022/04/09 09:26:44;;;;;;;0.00;0.00;;;;;;;23.61;33.69;97890.63;6273999;22;20003;-75
2022/04/09 09:29:12;;;;;;;0.00;0.00;;;;;;;23.63;33.49;97883.59;6274133;22;20000;-73
2022/04/09 09:31:42;;;;;;;0.10;0.10;;;;;;;23.67;33.07;97883.59;6274111;22;20108;-74
2022/04/09 09:34:10;;;;;;;0.00;0.00;;;;;;;23.66;33.04;97880.06;6273896;22;20311;-75
2022/04/09 09:36:36;;;;;;;;;;;;;;;23.70;33.27;97876.56;6247444;22;20007;-75
2022/04/09 09:39:06;;;;;;;0.10;0.10;;;;;;;23.69;32.87;97862.13;6273835;22;19938;-75
2022/04/09 09:41:31;;;;;;;0.10;0.10;;;;;;;23.71;33.15;97861.75;6273969;22;20007;-75
2022/04/09 09:44:04;;;;;;;0.00;0.00;;;;;;;23.78;33.06;97861.75;6273334;22;20003;-75
2022/04/09 09:46:31;;;;;;;0.05;0.05;;;;;;;23.84;33.60;97865.63;6273782;22;20000;-75
2022/04/09 09:48:56;;;;;;;0.00;0.00;;;;;;;23.89;33.63;97856.22;6246700;22;20026;-74
2022/04/09 09:51:25;;;;;;;0.00;0.00;;;;;;;23.95;33.32;97858.19;6274104;22;20433;-75
2022/04/09 09:54:13;;;;;;;0.28;0.28;;;;;;;23.95;33.29;97850.00;6246528;22;20003;-75
2022/04/09 09:56:43;;;;;;;0.10;0.10;;;;;;;24.01;33.34;97838.69;6274078;22;19999;-75
2022/04/09 09:59:14;;;;;;;0.00;0.00;;;;;;;24.10;33.55;97841.78;6273574;22;20034;-75
2022/04/09 10:01:44;;;;;;;0.10;0.10;;;;;;;24.10;33.48;97837.06;6273859;22;20007;-74
2022/04/09 10:04:14;;;;;;;0.10;0.10;;;;;;;24.13;33.54;97832.78;6273583;22;20422;-75
2022/04/09 10:06:43;;;;;;;0.32;0.32;;;;;;;24.05;33.78;97823.06;6273852;22;20065;-75
2022/04/09 10:09:10;;;;;;;0.00;0.00;;;;;;;24.08;33.88;97819.53;6273667;22;20008;-75
2022/04/09 10:11:39;;;;;;;0.00;0.00;;;;;;;24.09;33.62;97815.63;6273873;22;19999;-76
2022/04/09 10:14:06;;;;;;;0.00;0.00;;;;;;;24.11;33.44;97818.75;6273188;22;20357;-75
2022/04/09 10:16:35;;;;;;;0.00;0.00;;;;;;;24.14;33.99;97802.34;6273671;22;20008;-76
2022/04/09 10:19:02;;;;;;;0.05;0.05;;;;;;;24.24;33.46;97810.88;6273609;22;20125;-74
2022/04/09 10:21:29;;;;;;;0.00;0.00;;;;;;;24.29;33.56;97808.50;6273780;22;20075;-75
2022/04/09 10:23:59;;;;;;;0.00;0.00;;;;;;;24.30;33.42;97796.41;6274621;22;20061;-75
2022/04/09 10:26:26;;;;;;;0.10;0.10;;;;;;;24.36;33.76;97807.69;6275916;22;20003;-75
2022/04/09 10:28:52;;;;;;;0.13;0.13;;;;;;;24.30;33.78;97792.88;6275526;22;20004;-75
2022/04/09 10:31:23;;;;;;;0.00;0.00;;;;;;;24.34;34.13;97792.88;6275745;22;20388;-73
2022/04/09 10:33:59;;;;;;;0.10;0.10;;;;;;;24.39;34.70;97789.72;6275495;22;20038;-75
2022/04/09 10:36:40;;;;;;;0.05;0.05;;;;;;;24.50;33.72;97781.44;6275641;22;20318;-75
2022/04/09 10:39:41;;;;;;;0.00;0.00;;;;;;;24.57;33.21;97781.41;6275264;22;20038;-75
2022/04/09 10:42:07;;;;;;;0.20;0.20;;;;;;;24.61;32.60;97791.13;6275510;22;19995;-75
2022/04/09 10:44:44;;;;;;;0.00;0.00;;;;;;;24.61;32.73;97772.00;6248253;22;20004;-75
2022/04/09 10:47:15;;;;;;;0.00;0.00;;;;;;;24.65;33.00;97766.53;6275488;22;20444;-74
2022/04/09 10:49:41;;;;;;;0.00;0.00;;;;;;;24.71;33.12;97764.16;6275618;22;20075;-75
2022/04/09 10:52:14;;;;;;;0.00;0.00;;;;;;;24.78;32.84;97775.81;6275357;22;19999;-75
2022/04/09 10:55:03;;;;;;;0.10;0.10;;;;;;;24.80;32.89;97750.81;6275436;22;20046;-75
2022/04/09 10:57:41;;;;;;;0.08;0.08;;;;;;;24.83;32.13;97744.53;6256616;22;20138;-75
2022/04/09 11:00:08;;;;;;;0.10;0.10;;;;;;;24.85;31.59;97744.94;6275486;22;20007;-75
2022/04/09 11:02:34;;;;;;;0.00;0.00;;;;;;;24.82;31.68;97723.84;6275687;22;20081;-77
2022/04/09 11:05:20;;;;;;;0.00;0.00;;;;;;;24.89;30.95;97737.47;6274854;22;20425;-75
2022/04/09 11:08:05;;;;;;;0.00;0.00;;;;;;;24.94;30.69;97722.56;6275573;22;20049;-75
2022/04/09 11:10:31;;;;;;;0.00;0.00;;;;;;;24.97;31.19;97734.66;6275468;22;20011;-74
2022/04/09 11:12:56;;;;;;;0.05;0.05;;;;;;;25.00;30.85;97726.44;6275185;22;20003;-75
2022/04/09 11:15:21;;;;;;;0.20;0.10;;;;;;;25.08;31.02;97721.66;6275214;22;20011;-75
2022/04/09 11:17:47;;;;;;;0.00;0.00;;;;;;;25.15;30.34;97724.31;6275285;22;20012;-75
2022/04/09 11:20:22;;;;;;;0.00;0.00;;;;;;;25.24;30.21;97721.88;6275013;22;20011;-75
2022/04/09 11:22:53;;;;;;;0.20;0.20;;;;;;;25.31;29.97;97720.25;6275415;22;20004;-75
2022/04/09 11:25:30;;;;;;;0.00;0.00;;;;;;;25.36;29.79;97717.06;6275153;22;20000;-75
2022/04/09 11:28:13;;;;;;;0.00;0.00;;;;;;;25.41;29.43;97724.84;6274960;22;20000;-75
2022/04/09 11:30:51;;;;;;;0.00;0.00;;;;;;;25.41;29.13;97724.84;6275179;22;20007;-75
2022/04/09 11:33:17;;;;;;;;;;;;;;;25.40;29.64;97709.63;6275721;22;20004;-75